Time;durP1;ratioP1;P1;durP2;ratioP2;P2;SDS_P1;SDS_P2;PMS_P1;PMS_P2;Temp;Humidity;BMP_temperature;BMP_pressure;BME280_temperature;BME280_humidity;BME280_pressure;Samples;Min_cycle;Max_cycle;Signal;HPM_P1;HPM_P2
2021/08/10 00:03:53;;;;;;;5.45;3.08;;;;;;;18.73;62.99;101466.78;10482633;28;20463;-81
2021/08/10 00:08:54;;;;;;;4.90;3.08;;;;;;;18.76;62.84;101471.78;10513213;28;20071;-81
2021/08/10 00:13:55;;;;;;;12.93;3.65;;;;;;;18.63;63.31;101450.88;10514196;28;20054;-82
2021/08/10 00:18:55;;;;;;;6.70;2.95;;;;;;;18.72;63.57;101459.59;10517750;28;20127;-82
2021/08/10 00:23:55;;;;;;;4.07;3.67;;;;;;;18.65;64.22;101465.22;10519704;28;20036;-82
2021/08/10 00:28:56;;;;;;;8.68;2.70;;;;;;;18.67;64.36;101465.81;10537590;28;20032;-82
2021/08/10 00:33:56;;;;;;;2.42;2.13;;;;;;;18.78;63.63;101464.19;10539603;28;20111;-82
2021/08/10 00:38:57;;;;;;;2.95;2.63;;;;;;;18.76;64.17;101461.69;10536269;28;20085;-82
2021/08/10 00:43:57;;;;;;;8.32;3.28;;;;;;;18.71;63.92;101441.47;10518449;28;20063;-83
2021/08/10 00:48:58;;;;;;;11.82;4.40;;;;;;;18.62;64.82;101449.22;10518440;28;20168;-82
2021/08/10 00:53:59;;;;;;;8.13;3.30;;;;;;;18.61;64.90;101450.31;10519462;28;20028;-82
2021/08/10 00:59:02;;;;;;;11.90;3.63;;;;;;;18.55;65.68;101454.00;10503328;28;20024;-82
2021/08/10 01:04:03;;;;;;;5.00;3.38;;;;;;;18.58;64.98;101459.00;10517628;28;20036;-82
2021/08/10 01:09:07;;;;;;;6.57;3.55;;;;;;;18.23;65.97;101440.59;10531587;28;20040;-82
2021/08/10 01:14:15;;;;;;;7.15;3.15;;;;;;;18.49;66.53;101441.22;10495482;28;20113;-82
2021/08/10 01:19:26;;;;;;;5.00;2.67;;;;;;;18.46;65.79;101449.94;10530850;28;20054;-81
2021/08/10 01:24:29;;;;;;;7.75;4.00;;;;;;;18.47;65.75;101454.34;10532419;28;20039;-82
2021/08/10 01:29:54;;;;;;;7.82;3.97;;;;;;;18.50;67.35;101462.09;10535350;28;20355;-82
2021/08/10 01:34:54;;;;;;;3.63;2.92;;;;;;;17.79;65.54;101321.34;10519686;28;20040;-82
2021/08/10 01:39:57;;;;;;;5.63;4.35;;;;;;;17.90;66.35;101356.19;10497940;28;20107;-82
2021/08/10 01:45:00;;;;;;;11.55;4.60;;;;;;;18.53;65.99;101442.41;10532967;28;20073;-82
2021/08/10 01:50:01;;;;;;;13.52;4.15;;;;;;;18.42;65.76;101422.16;10516427;28;20023;-82
2021/08/10 01:55:02;;;;;;;9.93;3.88;;;;;;;18.53;65.72;101446.00;10531476;28;20117;-82
2021/08/10 02:00:04;;;;;;;8.15;4.95;;;;;;;17.55;66.30;101320.41;10479900;28;20047;-82
2021/08/10 02:05:07;;;;;;;15.07;3.70;;;;;;;18.32;66.58;101457.53;10528496;28;20042;-82
2021/08/10 02:10:08;;;;;;;6.78;3.80;;;;;;;18.55;66.28;101454.00;10530297;28;20124;-83
2021/08/10 02:15:08;;;;;;;11.38;6.38;;;;;;;18.25;66.99;101460.41;10529419;28;20082;-79
2021/08/10 02:20:12;;;;;;;8.07;4.57;;;;;;;17.89;68.51;101472.28;10530076;28;20455;-77
2021/08/10 02:25:15;;;;;;;11.38;4.50;;;;;;;17.73;68.90;101445.53;10511250;28;20462;-77
2021/08/10 02:30:16;;;;;;;6.55;4.28;;;;;;;17.68;69.75;101481.84;10513336;28;20094;-77
2021/08/10 02:35:20;;;;;;;14.80;5.63;;;;;;;17.91;69.03;101470.16;10501428;28;20119;-77
2021/08/10 02:40:20;;;;;;;9.57;5.35;;;;;;;17.93;68.37;101489.09;10519245;28;20074;-77
2021/08/10 02:45:21;;;;;;;9.55;5.28;;;;;;;17.43;69.01;101421.69;10537860;28;20384;-77
2021/08/10 02:50:23;;;;;;;4.10;3.60;;;;;;;17.76;69.23;101464.22;10519132;28;20032;-78
2021/08/10 02:55:23;;;;;;;16.92;3.90;;;;;;;17.77;68.83;101469.53;10538707;28;20097;-78
2021/08/10 03:00:24;;;;;;;7.13;5.10;;;;;;;17.29;69.89;101409.22;10540687;28;20092;-77
2021/08/10 03:05:27;;;;;;;5.72;4.70;;;;;;;17.59;68.89;101437.50;10505794;28;20123;-78
2021/08/10 03:10:30;;;;;;;10.48;6.38;;;;;;;17.67;68.57;101471.94;10522497;28;20032;-77
2021/08/10 03:15:31;;;;;;;20.35;6.72;;;;;;;16.67;68.66;101311.66;10521684;28;20086;-77
2021/08/10 03:20:32;;;;;;;8.57;4.80;;;;;;;17.61;68.46;101468.22;10539652;28;20371;-78
2021/08/10 03:25:32;;;;;;;16.10;6.35;;;;;;;17.60;68.80;101477.50;10540273;28;20035;-77
2021/08/10 03:30:33;;;;;;;10.48;5.78;;;;;;;17.42;68.86;101447.38;10537867;28;20111;-77
2021/08/10 03:35:33;;;;;;;12.10;5.65;;;;;;;17.52;70.07;101477.00;10501419;28;20056;-77
2021/08/10 03:40:34;;;;;;;24.08;7.68;;;;;;;17.53;69.27;101478.66;10534050;28;20111;-77
2021/08/10 03:45:34;;;;;;;16.75;6.20;;;;;;;17.00;69.49;101405.38;10498881;28;20469;-77
2021/08/10 03:50:35;;;;;;;9.13;5.72;;;;;;;17.41;70.25;101476.66;10517294;28;20111;-77
2021/08/10 03:55:35;;;;;;;6.55;5.47;;;;;;;17.30;69.56;101466.50;10514577;28;20115;-77
2021/08/10 04:00:37;;;;;;;8.38;6.18;;;;;;;15.83;69.86;101261.22;10515523;28;20050;-77
2021/08/10 04:05:42;;;;;;;8.15;6.53;;;;;;;16.36;69.69;101353.59;10513902;28;20027;-77
2021/08/10 04:10:44;;;;;;;18.67;7.25;;;;;;;16.69;70.20;101410.72;10517499;28;20140;-77
2021/08/10 04:15:49;;;;;;;25.25;7.90;;;;;;;16.41;70.86;101383.84;10518423;28;20056;-77
2021/08/10 04:20:50;;;;;;;25.50;7.25;;;;;;;17.17;70.53;101481.16;10502456;28;20062;-78
2021/08/10 04:25:51;;;;;;;14.60;8.48;;;;;;;17.12;69.99;101482.91;10517988;28;20375;-77
2021/08/10 04:30:52;;;;;;;14.52;6.35;;;;;;;17.17;70.72;101494.03;10535466;28;20101;-77
2021/08/10 04:35:52;;;;;;;22.10;8.20;;;;;;;16.73;71.58;101454.84;10515004;28;20344;-77
2021/08/10 04:40:53;;;;;;;14.23;6.22;;;;;;;16.96;71.52;101487.06;10533521;28;20050;-78
2021/08/10 04:45:53;;;;;;;21.63;7.05;;;;;;;16.69;70.91;101431.75;10534295;28;20052;-79
2021/08/10 04:50:54;;;;;;;20.73;8.60;;;;;;;17.11;71.19;101484.81;10515647;28;20040;-79
2021/08/10 04:55:54;;;;;;;11.63;8.70;;;;;;;17.24;71.09;101494.78;10441524;28;20048;-78
2021/08/10 05:00:55;;;;;;;24.02;8.60;;;;;;;17.69;70.02;101501.84;10529283;28;20028;-76
2021/08/10 05:05:56;;;;;;;13.95;7.72;;;;;;;16.86;70.06;101348.06;10532247;28;20040;-77
2021/08/10 05:10:58;;;;;;;13.90;8.35;;;;;;;17.70;70.29;101474.19;10497139;28;20024;-77
2021/08/10 05:15:59;;;;;;;15.57;8.75;;;;;;;17.97;69.91;101504.88;10512646;28;20061;-78
2021/08/10 05:20:59;;;;;;;10.45;6.90;;;;;;;18.04;70.39;101493.81;10533188;28;20036;-78
2021/08/10 05:26:00;;;;;;;13.80;7.85;;;;;;;17.95;69.31;101497.94;10532268;28;20177;-77
2021/08/10 05:31:00;;;;;;;14.35;7.60;;;;;;;17.62;69.91;101425.25;10515435;28;20044;-79
2021/08/10 05:36:00;;;;;;;15.73;7.15;;;;;;;19.41;67.78;101510.09;10513501;28;20039;-78
2021/08/10 05:41:01;;;;;;;17.05;6.75;;;;;;;19.80;66.60;101509.53;10532227;28;20032;-78
2021/08/10 05:46:01;;;;;;;16.08;6.60;;;;;;;19.81;66.59;101524.94;10531532;28;20113;-78
2021/08/10 05:51:04;;;;;;;12.85;6.15;;;;;;;20.27;66.88;101518.41;10531743;28;20044;-78
2021/08/10 05:56:05;;;;;;;10.23;5.97;;;;;;;21.05;63.94;101494.66;10513446;28;20032;-78
2021/08/10 06:01:05;;;;;;;12.50;6.47;;;;;;;21.15;63.70;101505.00;10533010;28;20105;-78
2021/08/10 06:06:05;;;;;;;12.40;7.05;;;;;;;21.08;62.57;101512.63;10518794;28;20104;-78
2021/08/10 06:11:06;;;;;;;7.60;5.88;;;;;;;20.04;64.49;101496.50;10523265;28;20028;-78
2021/08/10 06:16:06;;;;;;;12.38;6.90;;;;;;;19.74;65.43;101517.66;10541904;28;20079;-78
2021/08/10 06:21:07;;;;;;;17.23;6.30;;;;;;;18.22;68.47;101427.09;10540823;28;20051;-78
2021/08/10 06:26:08;;;;;;;11.25;6.85;;;;;;;18.71;69.51;101519.13;10539371;28;20039;-78
2021/08/10 06:31:09;;;;;;;7.82;6.95;;;;;;;17.35;71.06;101381.75;10538507;28;20105;-77
2021/08/10 06:36:09;;;;;;;18.20;8.15;;;;;;;18.01;71.57;101514.28;10519255;28;20032;-79
2021/08/10 06:41:10;;;;;;;14.02;8.82;;;;;;;17.82;71.95;101499.78;10538541;28;20111;-80
2021/08/10 06:46:10;;;;;;;15.65;8.07;;;;;;;18.03;71.36;101533.25;10537638;28;20177;-80
2021/08/10 06:51:11;;;;;;;13.35;6.68;;;;;;;17.75;71.10;101448.88;10519082;28;20084;-80
2021/08/10 06:56:11;;;;;;;10.02;7.60;;;;;;;18.20;71.26;101519.72;10537740;28;20039;-79
2021/08/10 07:01:11;;;;;;;9.75;7.05;;;;;;;18.21;70.99;101497.56;10537677;28;20063;-79
2021/08/10 07:06:12;;;;;;;15.48;7.13;;;;;;;18.29;70.19;101474.47;10516673;28;20044;-80
2021/08/10 07:11:12;;;;;;;9.20;7.18;;;;;;;18.66;70.48;101534.63;10517227;28;20068;-80
2021/08/10 07:16:13;;;;;;;19.38;7.95;;;;;;;18.56;70.55;101526.97;10534233;28;20064;-80
2021/08/10 07:21:13;;;;;;;7.55;6.20;;;;;;;18.47;70.95;101522.91;10534863;28;20160;-80
2021/08/10 07:26:13;;;;;;;23.27;6.82;;;;;;;18.46;71.43;101521.22;10516675;28;20105;-80
2021/08/10 07:31:14;;;;;;;13.90;7.70;;;;;;;18.52;70.97;101525.78;10516327;28;20111;-79
2021/08/10 07:36:14;;;;;;;21.73;7.85;;;;;;;18.71;70.90;101532.84;10533974;28;20032;-80
2021/08/10 07:41:15;;;;;;;13.40;7.25;;;;;;;18.94;70.29;101545.78;10534749;28;20443;-80
2021/08/10 07:46:15;;;;;;;9.57;5.93;;;;;;;18.59;70.88;101521.84;10534975;28;20143;-80
2021/08/10 07:51:17;;;;;;;11.48;6.43;;;;;;;18.40;71.32;101494.75;10500023;28;20036;-80
2021/08/10 07:56:17;;;;;;;20.25;6.93;;;;;;;18.35;71.84;101493.56;10533758;28;20088;-80
2021/08/10 08:01:18;;;;;;;11.32;7.13;;;;;;;18.70;71.98;101550.38;10534178;28;20444;-80
2021/08/10 08:06:19;;;;;;;16.50;5.68;;;;;;;19.10;71.69;101547.00;10515991;28;20355;-80
2021/08/10 08:11:19;;;;;;;8.90;6.82;;;;;;;19.21;71.49;101548.91;10517583;28;20039;-79
2021/08/10 08:16:20;;;;;;;12.82;6.90;;;;;;;19.00;71.12;101530.28;10515275;28;20056;-80
2021/08/10 08:21:20;;;;;;;8.57;6.00;;;;;;;19.01;70.98;101556.66;10533228;28;20048;-80
2021/08/10 08:26:21;;;;;;;9.85;5.30;;;;;;;19.14;71.26;101552.84;10533909;28;20397;-80
2021/08/10 08:31:22;;;;;;;10.77;5.30;;;;;;;19.26;70.94;101554.50;10535539;28;20363;-80
2021/08/10 08:36:22;;;;;;;17.52;6.50;;;;;;;20.86;69.64;101557.44;10516890;28;20046;-80
2021/08/10 08:41:23;;;;;;;9.10;5.90;;;;;;;21.57;68.55;101554.97;10533590;28;20052;-80
2021/08/10 08:46:23;;;;;;;14.48;3.50;;;;;;;22.10;67.03;101551.72;10534846;28;20032;-80
2021/08/10 08:51:24;;;;;;;6.25;4.45;;;;;;;22.87;64.49;101536.75;10532876;28;20427;-80
2021/08/10 08:56:25;;;;;;;15.23;5.07;;;;;;;22.71;64.44;101566.16;10498693;28;20031;-81
2021/08/10 09:01:25;;;;;;;5.13;3.85;;;;;;;22.15;64.84;101571.09;10516362;28;20071;-81
2021/08/10 09:06:26;;;;;;;9.48;3.95;;;;;;;21.85;64.78;101572.38;10537304;28;20028;-81
2021/08/10 09:11:26;;;;;;;10.27;4.80;;;;;;;21.72;64.91;101570.84;10538277;28;20040;-81
2021/08/10 09:16:26;;;;;;;8.77;4.15;;;;;;;22.74;63.51;101569.22;10519197;28;20526;-81
2021/08/10 09:21:27;;;;;;;8.82;5.55;;;;;;;24.28;61.44;101572.91;10536009;28;20036;-81
2021/08/10 09:26:31;;;;;;;6.75;3.92;;;;;;;24.94;60.37;101570.25;10534477;28;20382;-81
2021/08/10 09:31:33;;;;;;;5.78;3.95;;;;;;;25.80;56.05;101570.38;10534037;28;20040;-81
2021/08/10 09:36:34;;;;;;;6.65;4.65;;;;;;;24.74;56.16;101571.06;10532485;28;20039;-82
2021/08/10 09:41:34;;;;;;;8.30;3.55;;;;;;;25.21;55.94;101558.91;10499054;28;20066;-82
2021/08/10 09:46:36;;;;;;;13.35;4.28;;;;;;;26.52;54.59;101574.47;10515353;28;20069;-82
2021/08/10 09:51:46;;;;;;;4.20;3.80;;;;;;;26.71;54.14;101570.97;10533736;28;20077;-82
2021/08/10 09:56:55;;;;;;;4.15;3.33;;;;;;;27.10;53.30;101574.53;10499640;28;20028;-82
2021/08/10 10:01:58;;;;;;;7.10;3.33;;;;;;;26.10;52.88;101575.81;10515146;28;20391;-83
2021/08/10 10:07:10;;;;;;;8.32;3.17;;;;;;;24.94;53.69;101581.31;10532568;28;20089;-83
2021/08/10 10:12:10;;;;;;;6.80;3.95;;;;;;;26.13;52.53;101583.56;10532843;28;20048;-83
2021/08/10 10:17:11;;;;;;;6.65;3.97;;;;;;;25.93;50.14;101565.06;10514944;28;20460;-83
2021/08/10 10:22:17;;;;;;;9.70;4.35;;;;;;;25.46;51.65;101548.84;10533514;28;20067;-82
2021/08/10 10:27:17;;;;;;;7.23;4.13;;;;;;;26.56;51.24;101574.72;10518086;28;20129;-82
2021/08/10 10:32:18;;;;;;;5.20;3.65;;;;;;;27.60;48.42;101582.69;10517081;28;20184;-82
2021/08/10 10:37:20;;;;;;;5.25;3.63;;;;;;;28.32;47.66;101528.84;10515009;28;20032;-82
2021/08/10 10:42:21;;;;;;;5.32;3.75;;;;;;;27.69;46.72;101586.44;10514273;28;20036;-83
2021/08/10 10:47:24;;;;;;;9.40;3.92;;;;;;;26.92;49.15;101580.00;10532449;28;20040;-83
2021/08/10 10:52:29;;;;;;;9.15;4.35;;;;;;;28.28;49.15;101581.56;10518118;28;20039;-83
2021/08/10 10:57:34;;;;;;;6.75;3.58;;;;;;;28.11;46.71;101584.84;10505444;28;20028;-83
2021/08/10 11:02:36;;;;;;;7.57;3.55;;;;;;;29.09;43.98;101581.41;10522005;28;20495;-83
2021/08/10 11:07:42;;;;;;;4.25;3.78;;;;;;;29.34;44.42;101589.31;10486867;28;20047;-83
2021/08/10 11:12:47;;;;;;;7.25;4.13;;;;;;;29.86;43.71;101578.81;10540324;28;20050;-83
2021/08/10 11:18:06;;;;;;;6.30;2.53;;;;;;;29.97;47.38;101587.81;10542263;28;20054;-83
2021/08/10 11:23:25;;;;;;;2.58;2.33;;;;;;;29.25;49.59;101554.91;10539496;28;20097;-84
2021/08/10 11:28:34;;;;;;;3.65;3.03;;;;;;;29.36;46.30;101580.66;10539384;28;20371;-83
2021/08/10 11:33:38;;;;;;;3.70;3.17;;;;;;;28.73;41.83;101590.38;10539338;28;20057;-83
2021/08/10 11:38:44;;;;;;;3.25;2.30;;;;;;;28.25;44.13;101580.19;10538647;28;20024;-83
2021/08/10 11:43:46;;;;;;;4.13;3.20;;;;;;;27.87;43.56;101484.69;10541643;28;20126;-84
2021/08/10 11:48:53;;;;;;;3.88;2.78;;;;;;;29.50;43.69;101577.88;10544299;28;20036;-83
2021/08/10 11:53:55;;;;;;;4.57;3.75;;;;;;;29.62;40.00;101569.84;10525377;28;20044;-84
2021/08/10 11:58:56;;;;;;;3.80;3.47;;;;;;;30.19;41.83;101583.44;10508765;28;20383;-84
2021/08/10 12:04:28;;;;;;;6.10;3.95;;;;;;;31.43;45.60;101588.50;10523652;28;20036;-85
2021/08/10 12:09:35;;;;;;;3.58;2.75;;;;;;;31.35;41.32;101581.72;10525896;28;20044;-85
2021/08/10 12:14:35;;;;;;;5.18;3.30;;;;;;;31.62;42.11;101589.09;10542550;28;20048;-85
2021/08/10 12:19:43;;;;;;;4.60;3.00;;;;;;;30.97;41.49;101595.31;10542488;28;20376;-85
2021/08/10 12:24:43;;;;;;;6.03;4.57;;;;;;;31.54;39.91;101587.06;10507604;28;20031;-85
2021/08/10 12:29:45;;;;;;;4.97;2.88;;;;;;;31.42;40.63;101579.28;10507444;28;20043;-85
2021/08/10 12:34:46;;;;;;;3.53;3.22;;;;;;;31.01;37.79;101580.34;10507902;28;20024;-85
2021/08/10 12:39:48;;;;;;;4.07;3.67;;;;;;;30.85;41.02;101578.28;10523275;28;20063;-85
2021/08/10 12:44:49;;;;;;;3.72;3.03;;;;;;;30.79;39.03;101575.63;10507343;28;20056;-85
2021/08/10 12:49:50;;;;;;;3.80;3.50;;;;;;;31.07;38.42;101574.63;10523421;28;20066;-86
2021/08/10 12:54:50;;;;;;;10.15;4.20;;;;;;;31.14;39.55;101555.41;10541075;28;20064;-85
2021/08/10 12:59:53;;;;;;;4.45;3.45;;;;;;;30.47;41.76;101487.22;10541222;28;20032;-86
2021/08/10 13:04:57;;;;;;;8.55;4.50;;;;;;;30.52;38.77;101575.69;10522882;28;20042;-85
2021/08/10 13:09:59;;;;;;;3.50;2.88;;;;;;;30.62;37.75;101578.25;10522062;28;20036;-85
2021/08/10 13:15:04;;;;;;;6.70;3.53;;;;;;;30.70;37.52;101580.28;10521951;28;20063;-86
2021/08/10 13:20:08;;;;;;;5.65;2.75;;;;;;;30.76;39.85;101555.81;10522426;28;20433;-86
2021/08/10 13:25:13;;;;;;;5.10;3.17;;;;;;;31.44;39.54;101578.97;10540949;28;20129;-86
2021/08/10 13:30:20;;;;;;;4.47;4.05;;;;;;;30.58;39.43;101574.44;10521636;28;20036;-85
2021/08/10 13:35:27;;;;;;;4.55;3.78;;;;;;;30.28;42.47;101582.41;10521514;28;20024;-86
2021/08/10 13:40:27;;;;;;;2.85;2.47;;;;;;;30.72;37.72;101585.56;10539515;28;20088;-85
2021/08/10 13:45:29;;;;;;;3.05;2.85;;;;;;;29.95;42.96;101516.66;10521331;28;20541;-86
2021/08/10 13:50:29;;;;;;;6.50;2.38;;;;;;;30.16;39.47;101565.34;10504388;28;20507;-86
2021/08/10 13:55:30;;;;;;;4.38;2.05;;;;;;;30.37;38.33;101570.47;10520813;28;20067;-86
2021/08/10 14:00:37;;;;;;;3.80;2.78;;;;;;;29.68;38.70;101525.91;10538713;28;20472;-85
2021/08/10 14:05:38;;;;;;;5.82;3.35;;;;;;;30.28;38.84;101576.81;10520106;28;20078;-86
2021/08/10 14:10:38;;;;;;;3.30;2.95;;;;;;;29.92;40.04;101587.09;10504017;28;20040;-86
2021/08/10 14:15:39;;;;;;;7.47;3.53;;;;;;;29.57;39.51;101586.66;10520680;28;20083;-86
2021/08/10 14:20:41;;;;;;;7.13;2.42;;;;;;;29.15;41.88;101572.66;10520486;28;20407;-85
2021/08/10 14:25:42;;;;;;;9.10;2.83;;;;;;;29.39;40.89;101569.69;10502284;28;20145;-85
2021/08/10 14:30:42;;;;;;;3.83;3.40;;;;;;;29.79;39.71;101589.56;10538091;28;20069;-86
2021/08/10 14:35:43;;;;;;;3.22;2.92;;;;;;;29.53;40.54;101588.41;10488602;28;20360;-86
2021/08/10 14:40:44;;;;;;;8.00;3.03;;;;;;;29.31;41.91;101608.63;10506821;28;20032;-86
2021/08/10 14:45:44;;;;;;;3.67;2.00;;;;;;;28.96;38.80;101603.34;10507797;28;20059;-85
2021/08/10 14:50:45;;;;;;;3.67;3.33;;;;;;;28.45;40.50;101595.81;10509104;28;20101;-85
2021/08/10 14:55:45;;;;;;;12.52;2.92;;;;;;;28.48;41.84;101611.91;10504720;28;20127;-85
2021/08/10 15:00:46;;;;;;;3.15;2.95;;;;;;;28.50;40.91;101601.31;10504644;28;20047;-85
2021/08/10 15:05:46;;;;;;;2.47;2.30;;;;;;;28.61;40.99;101601.97;10504072;28;20094;-86
2021/08/10 15:10:48;;;;;;;1.92;1.85;;;;;;;28.54;41.36;101609.88;10520828;28;20122;-86
2021/08/10 15:15:48;;;;;;;2.70;2.50;;;;;;;28.58;40.53;101604.53;10504891;28;20226;-85
2021/08/10 15:20:49;;;;;;;4.30;3.08;;;;;;;28.44;39.92;101607.25;10488982;28;20142;-85
2021/08/10 15:25:50;;;;;;;4.65;2.92;;;;;;;28.34;39.21;101591.50;10539898;28;20388;-86
2021/08/10 15:30:50;;;;;;;12.15;3.45;;;;;;;28.26;41.54;101615.25;10507788;28;20044;-86
2021/08/10 15:35:51;;;;;;;3.08;2.33;;;;;;;27.99;39.29;101604.78;10522430;28;20461;-86
2021/08/10 15:40:52;;;;;;;3.20;2.90;;;;;;;27.75;39.37;101588.03;10540946;28;20462;-85
2021/08/10 15:45:53;;;;;;;5.20;2.75;;;;;;;27.69;40.35;101600.34;10542640;28;20063;-85
2021/08/10 15:50:53;;;;;;;5.10;2.72;;;;;;;27.74;41.58;101591.13;10545269;28;20036;-85
2021/08/10 15:55:54;;;;;;;4.15;2.83;;;;;;;27.57;41.08;101594.41;10543116;28;20651;-84
2021/08/10 16:00:54;;;;;;;5.97;2.42;;;;;;;27.65;41.35;101596.53;10524879;28;20044;-84
2021/08/10 16:05:56;;;;;;;2.83;2.42;;;;;;;27.13;41.24;101596.22;10542924;28;20063;-84
2021/08/10 16:10:58;;;;;;;5.75;3.35;;;;;;;26.75;42.16;101594.31;10543884;28;20065;-84
2021/08/10 16:15:58;;;;;;;4.95;3.88;;;;;;;26.07;42.67;101558.88;10508013;28;20059;-84
2021/08/10 16:20:59;;;;;;;7.88;3.45;;;;;;;25.93;43.46;101597.53;10525001;28;20543;-83
2021/08/10 16:25:59;;;;;;;4.25;3.47;;;;;;;25.33;44.17;101604.88;10541939;28;20485;-84
2021/08/10 16:31:00;;;;;;;5.50;3.13;;;;;;;24.89;44.35;101605.41;10523022;28;20395;-84
2021/08/10 16:36:03;;;;;;;2.72;2.55;;;;;;;24.54;45.52;101598.75;10520670;28;20489;-84
2021/08/10 16:41:03;;;;;;;3.88;3.13;;;;;;;23.99;46.38;101597.44;10520844;28;20047;-83
2021/08/10 16:46:04;;;;;;;4.47;3.45;;;;;;;23.80;46.78;101592.41;10519293;28;20071;-83
2021/08/10 16:51:05;;;;;;;6.07;3.25;;;;;;;23.36;48.02;101578.88;10520447;28;20526;-84
2021/08/10 16:56:06;;;;;;;10.70;3.78;;;;;;;23.47;47.91;101612.09;10519050;28;20157;-83
2021/08/10 17:01:06;;;;;;;15.50;3.70;;;;;;;23.25;49.79;101595.63;10517915;28;20463;-83
2021/08/10 17:06:08;;;;;;;5.15;3.00;;;;;;;22.65;50.25;101517.53;10516781;28;20382;-83
2021/08/10 17:11:09;;;;;;;4.32;2.45;;;;;;;23.07;50.09;101610.69;10500908;28;20050;-83
2021/08/10 17:16:10;;;;;;;7.90;3.58;;;;;;;22.67;49.43;101576.91;10534553;28;20403;-83
2021/08/10 17:21:10;;;;;;;6.85;2.92;;;;;;;22.82;49.12;101609.34;10499131;28;20036;-82
2021/08/10 17:26:12;;;;;;;10.23;4.05;;;;;;;22.75;49.70;101622.56;10533923;28;20032;-83
2021/08/10 17:31:12;;;;;;;4.68;3.53;;;;;;;22.37;49.54;101560.91;10531977;28;20032;-83
2021/08/10 17:36:13;;;;;;;4.00;2.78;;;;;;;22.52;49.94;101618.97;10516478;28;20107;-83
2021/08/10 17:41:14;;;;;;;3.33;2.97;;;;;;;22.26;50.75;101595.81;10533967;28;20401;-82
2021/08/10 17:46:16;;;;;;;3.63;3.28;;;;;;;22.27;50.47;101621.47;10531372;28;20031;-83
2021/08/10 17:51:21;;;;;;;3.15;2.83;;;;;;;22.21;50.99;101614.25;10495314;28;20064;-83
2021/08/10 17:56:21;;;;;;;3.00;2.72;;;;;;;22.16;51.26;101622.44;10529537;28;20374;-83
2021/08/10 18:01:22;;;;;;;3.78;3.20;;;;;;;22.10;51.09;101617.94;10494975;28;20050;-83
2021/08/10 18:06:23;;;;;;;17.13;3.47;;;;;;;21.99;51.12;101620.56;10512963;28;20035;-82
2021/08/10 18:11:24;;;;;;;5.03;3.55;;;;;;;21.94;51.56;101623.25;10512655;28;20086;-83
2021/08/10 18:16:24;;;;;;;4.95;3.45;;;;;;;21.78;51.78;101629.66;10515749;28;20119;-82
2021/08/10 18:21:25;;;;;;;4.60;3.22;;;;;;;21.64;52.02;101620.91;10496829;28;20040;-82
2021/08/10 18:26:25;;;;;;;3.45;3.15;;;;;;;21.46;52.10;101627.53;10516822;28;20425;-83
2021/08/10 18:31:26;;;;;;;4.40;3.08;;;;;;;21.13;51.60;101600.84;10517130;28;20044;-82
2021/08/10 18:36:26;;;;;;;8.63;3.40;;;;;;;21.30;52.02;101633.88;10532165;28;20387;-82
2021/08/10 18:41:27;;;;;;;9.63;3.47;;;;;;;21.05;51.88;101629.59;10533156;28;20040;-82
2021/08/10 18:46:27;;;;;;;7.15;4.05;;;;;;;21.06;51.98;101642.31;10513124;28;20075;-83
2021/08/10 18:51:29;;;;;;;5.45;2.80;;;;;;;20.95;51.60;101647.88;10533177;28;20111;-83
2021/08/10 18:56:30;;;;;;;8.82;3.08;;;;;;;20.79;51.80;101650.38;10514810;28;20390;-82
2021/08/10 19:01:30;;;;;;;9.77;5.32;;;;;;;20.30;52.32;101600.44;10510464;28;20099;-82
2021/08/10 19:06:30;;;;;;;4.15;3.45;;;;;;;20.46;52.43;101651.09;10493443;28;20081;-83
2021/08/10 19:11:32;;;;;;;5.05;3.33;;;;;;;20.49;52.47;101667.13;10511008;28;20466;-82
2021/08/10 19:16:33;;;;;;;5.15;3.20;;;;;;;20.35;52.97;101665.72;10499394;28;20074;-82
2021/08/10 19:21:33;;;;;;;4.90;3.13;;;;;;;20.23;53.68;101668.50;10516794;28;20051;-82
2021/08/10 19:26:34;;;;;;;5.68;3.13;;;;;;;20.06;53.97;101684.09;10500533;28;20032;-82
2021/08/10 19:31:35;;;;;;;8.57;3.15;;;;;;;19.90;54.20;101686.47;10535311;28;20057;-83
2021/08/10 19:36:36;;;;;;;6.00;2.92;;;;;;;19.57;54.64;101654.09;10535907;28;20024;-82
2021/08/10 19:41:36;;;;;;;4.80;3.70;;;;;;;19.64;54.68;101704.31;10534970;28;20101;-82
2021/08/10 19:46:37;;;;;;;7.40;2.97;;;;;;;19.51;55.28;101699.00;10504512;28;20039;-81
2021/08/10 19:51:41;;;;;;;8.65;3.47;;;;;;;19.33;55.31;101696.34;10521391;28;20601;-83
2021/08/10 19:56:41;;;;;;;9.82;3.45;;;;;;;19.25;55.85;101706.63;10521393;28;20478;-83
2021/08/10 20:01:41;;;;;;;3.88;3.28;;;;;;;19.08;55.31;101683.66;10520514;28;20094;-83
2021/08/10 20:06:42;;;;;;;11.43;3.63;;;;;;;19.10;55.93;101702.63;10521104;28;20429;-84
2021/08/10 20:11:43;;;;;;;7.63;4.28;;;;;;;18.96;56.04;101697.34;10520042;28;20044;-83
2021/08/10 20:16:43;;;;;;;8.13;2.92;;;;;;;18.95;55.85;101701.19;10535344;28;20051;-83
2021/08/10 20:21:47;;;;;;;5.05;3.60;;;;;;;18.75;55.93;101700.63;10515041;28;20047;-83
2021/08/10 20:26:48;;;;;;;3.22;2.65;;;;;;;18.84;56.21;101715.69;10531379;28;20063;-83
2021/08/10 20:31:48;;;;;;;13.35;3.83;;;;;;;18.68;56.31;101724.53;10531369;28;20036;-83
2021/08/10 20:36:49;;;;;;;4.32;3.60;;;;;;;18.61;56.78;101732.84;10495605;28;20044;-83
2021/08/10 20:41:51;;;;;;;4.32;3.90;;;;;;;18.51;57.27;101725.16;10531465;28;20036;-84
2021/08/10 20:46:52;;;;;;;7.90;4.30;;;;;;;18.43;58.13;101725.47;10498539;28;20093;-84
2021/08/10 20:51:55;;;;;;;5.47;4.53;;;;;;;18.43;57.57;101735.59;10498830;28;20097;-82
2021/08/10 20:56:57;;;;;;;9.35;4.15;;;;;;;18.32;58.46;101735.31;10531778;28;20024;-83
2021/08/10 21:01:57;;;;;;;4.90;3.90;;;;;;;17.99;58.00;101682.75;10532355;28;20119;-83
2021/08/10 21:06:58;;;;;;;7.53;3.63;;;;;;;18.06;59.00;101721.88;10480740;28;20127;-83
2021/08/10 21:11:59;;;;;;;6.22;4.38;;;;;;;17.84;58.66;101700.41;10532138;28;20089;-83
2021/08/10 21:17:00;;;;;;;4.53;3.72;;;;;;;17.74;58.85;101688.25;10514716;28;20060;-82
2021/08/10 21:22:01;;;;;;;8.15;4.18;;;;;;;17.85;58.24;101728.66;10512645;28;20153;-84
2021/08/10 21:27:02;;;;;;;5.40;4.03;;;;;;;17.96;58.23;101762.69;10494706;28;20149;-84
2021/08/10 21:32:03;;;;;;;3.97;3.63;;;;;;;17.51;58.22;101697.09;10510834;28;20072;-84
2021/08/10 21:37:04;;;;;;;10.27;5.35;;;;;;;17.84;59.51;101766.19;10511168;28;20059;-84
2021/08/10 21:42:05;;;;;;;5.97;4.65;;;;;;;17.77;59.50;101748.09;10529350;28;20386;-84
2021/08/10 21:47:06;;;;;;;3.17;2.85;;;;;;;17.85;59.11;101772.50;10511073;28;20051;-83
2021/08/10 21:52:06;;;;;;;6.55;4.72;;;;;;;17.77;58.82;101770.88;10477496;28;20036;-84
2021/08/10 21:57:07;;;;;;;7.75;3.65;;;;;;;17.61;59.52;101771.38;10495708;28;20438;-84
2021/08/10 22:02:08;;;;;;;10.15;5.07;;;;;;;17.68;60.30;101766.72;10513924;28;20093;-84
2021/08/10 22:07:09;;;;;;;4.72;4.18;;;;;;;17.64;60.24;101770.94;10514355;28;20044;-84
2021/08/10 22:12:09;;;;;;;6.97;4.28;;;;;;;17.64;59.99;101781.88;10534558;28;20118;-84
2021/08/10 22:17:10;;;;;;;5.50;3.97;;;;;;;17.60;59.73;101789.72;10534658;28;20052;-84
2021/08/10 22:22:10;;;;;;;6.32;3.70;;;;;;;17.30;59.08;101751.19;10534294;28;20043;-84
2021/08/10 22:27:11;;;;;;;8.60;5.00;;;;;;;17.37;61.20;101787.56;10499737;28;20569;-84
2021/08/10 22:32:11;;;;;;;10.10;3.45;;;;;;;17.59;61.05;101798.16;10499256;28;20435;-84
2021/08/10 22:37:12;;;;;;;12.23;4.97;;;;;;;17.49;61.13;101776.75;10482038;28;20028;-84
2021/08/10 22:42:12;;;;;;;9.32;4.47;;;;;;;17.63;61.42;101785.69;10497701;28;20078;-85
2021/08/10 22:47:13;;;;;;;15.90;4.45;;;;;;;17.62;60.75;101784.88;10517684;28;20031;-84
2021/08/10 22:52:13;;;;;;;12.52;5.30;;;;;;;17.58;61.13;101783.66;10522566;28;20123;-84
2021/08/10 22:57:15;;;;;;;10.93;6.05;;;;;;;17.46;61.49;101785.41;10489491;28;20459;-84
2021/08/10 23:02:15;;;;;;;5.10;4.65;;;;;;;17.47;61.71;101781.59;10522866;28;20390;-84